Time;durP1;ratioP1;P1;durP2;ratioP2;P2;SDS_P1;SDS_P2;PMS_P1;PMS_P2;Temp;Humidity;BMP_temperature;BMP_pressure;BME280_temperature;BME280_humidity;BME280_pressure;Samples;Min_cycle;Max_cycle;Signal;HPM_P1;HPM_P2
2021/01/10 00:02:16;;;;;;;23.00;13.30;;;;;;;-145.61;100.00;68426.72;4999493;28;20026;-89
2021/01/10 00:04:42;;;;;;;19.77;12.90;;;;;;;-145.61;100.00;68426.72;5000651;28;20018;-89
2021/01/10 00:07:07;;;;;;;19.50;12.73;;;;;;;-145.61;100.00;68426.72;5000593;28;20069;-89
2021/01/10 00:09:33;;;;;;;19.73;13.00;;;;;;;-145.61;100.00;68426.72;5000596;28;20022;-89
2021/01/10 00:11:59;;;;;;;19.73;13.13;;;;;;;-145.61;100.00;68426.72;5000354;28;20415;-89
2021/01/10 00:14:24;;;;;;;20.00;13.00;;;;;;;-145.61;100.00;68426.72;5000399;28;20429;-89
2021/01/10 00:16:49;;;;;;;23.77;13.85;;;;;;;-145.61;100.00;68426.72;5001419;28;20038;-89
2021/01/10 00:19:15;;;;;;;20.65;13.60;;;;;;;-145.61;100.00;68426.72;5001311;28;20057;-89
2021/01/10 00:21:40;;;;;;;20.85;12.82;;;;;;;-145.61;100.00;68426.72;5000202;28;20410;-89
2021/01/10 00:24:06;;;;;;;20.08;13.02;;;;;;;-145.61;100.00;68426.72;5000268;28;20390;-89
2021/01/10 00:26:33;;;;;;;19.23;12.45;;;;;;;-145.61;100.00;68426.72;5001314;28;20034;-89
2021/01/10 00:29:00;;;;;;;17.08;11.63;;;;;;;-145.61;100.00;68426.72;4999910;28;20042;-89
2021/01/10 00:31:30;;;;;;;17.05;11.73;;;;;;;-145.61;100.00;68426.72;5001177;28;20030;-89
2021/01/10 00:33:56;;;;;;;19.73;12.27;;;;;;;-145.61;100.00;68426.72;5000229;28;20030;-89
2021/01/10 00:36:21;;;;;;;17.83;11.85;;;;;;;-145.61;100.00;68426.72;5000071;28;20446;-89
2021/01/10 00:38:47;;;;;;;17.98;12.25;;;;;;;-145.61;100.00;68426.72;4999373;28;20022;-89
2021/01/10 00:41:12;;;;;;;19.88;12.65;;;;;;;-145.61;100.00;68426.72;4980593;28;20387;-89
2021/01/10 00:43:38;;;;;;;21.45;13.32;;;;;;;-145.61;100.00;68426.72;4994306;28;20398;-89
2021/01/10 00:46:03;;;;;;;18.58;12.65;;;;;;;-145.61;100.00;68426.72;5001081;28;20032;-89
2021/01/10 00:48:29;;;;;;;21.08;13.10;;;;;;;-145.61;100.00;68426.72;4999795;28;20319;-89
2021/01/10 00:50:54;;;;;;;20.13;12.75;;;;;;;-145.61;100.00;68426.72;4999977;28;20034;-89
2021/01/10 00:53:19;;;;;;;20.17;12.65;;;;;;;-145.61;100.00;68426.72;4999780;28;20318;-89
2021/01/10 00:55:45;;;;;;;19.33;11.70;;;;;;;-145.61;100.00;68426.72;4999681;28;20076;-89
2021/01/10 00:58:10;;;;;;;15.77;10.98;;;;;;;-145.61;100.00;68426.72;4999736;28;20404;-88
2021/01/10 01:00:36;;;;;;;17.08;11.07;;;;;;;-145.61;100.00;68426.72;4999654;28;20030;-89
2021/01/10 01:03:01;;;;;;;18.52;12.02;;;;;;;-145.61;100.00;68426.72;4999680;28;20441;-89
2021/01/10 01:05:27;;;;;;;18.05;12.02;;;;;;;-145.61;100.00;68426.72;5000572;28;20080;-89
2021/01/10 01:07:52;;;;;;;15.65;10.52;;;;;;;-145.61;100.00;68426.72;4999551;28;20019;-89
2021/01/10 01:10:17;;;;;;;17.65;11.23;;;;;;;-145.61;100.00;68426.72;4999656;28;20023;-89
2021/01/10 01:12:43;;;;;;;18.50;11.70;;;;;;;-145.61;100.00;68426.72;4999907;28;20027;-89
2021/01/10 01:15:09;;;;;;;17.20;11.23;;;;;;;-145.61;100.00;68426.72;4999240;28;20030;-89
2021/01/10 01:17:36;;;;;;;14.68;10.07;;;;;;;-145.61;100.00;68426.72;4999344;28;20030;-90
2021/01/10 01:20:03;;;;;;;16.17;10.45;;;;;;;-145.61;100.00;68426.72;4999275;28;20014;-89
2021/01/10 01:22:28;;;;;;;15.32;10.05;;;;;;;-145.61;100.00;68426.72;4999181;28;20030;-89
2021/01/10 01:24:54;;;;;;;13.95;10.18;;;;;;;-145.61;100.00;68426.72;5000232;28;20031;-89
2021/01/10 01:27:19;;;;;;;18.08;11.30;;;;;;;-145.61;100.00;68426.72;4986116;28;20073;-89
2021/01/10 01:29:45;;;;;;;17.40;11.15;;;;;;;-145.61;100.00;68426.72;4987851;28;20077;-89
2021/01/10 01:32:10;;;;;;;16.20;10.55;;;;;;;-145.61;100.00;68426.72;4979622;28;20022;-89
2021/01/10 01:34:35;;;;;;;14.10;9.55;;;;;;;-145.61;100.00;68426.72;4991834;28;20378;-89
2021/01/10 01:37:03;;;;;;;14.50;9.38;;;;;;;-145.61;100.00;68426.72;4999056;28;20117;-90
2021/01/10 01:39:28;;;;;;;15.23;9.68;;;;;;;-145.61;100.00;68426.72;4999277;28;20155;-89
2021/01/10 01:41:53;;;;;;;13.55;9.40;;;;;;;-145.61;100.00;68426.72;4998870;28;20117;-89
2021/01/10 01:44:19;;;;;;;13.68;9.25;;;;;;;-145.61;100.00;68426.72;4998862;28;20034;-89
2021/01/10 01:46:44;;;;;;;15.23;9.57;;;;;;;-145.61;100.00;68426.72;4979431;28;20323;-89
2021/01/10 01:49:11;;;;;;;13.93;9.77;;;;;;;-145.61;100.00;68426.72;4995364;28;20030;-89
2021/01/10 01:51:38;;;;;;;15.55;10.27;;;;;;;-145.61;100.00;68426.72;4998655;28;20026;-89
2021/01/10 01:54:04;;;;;;;12.20;8.45;;;;;;;-145.61;100.00;68426.72;4998674;28;20525;-89
2021/01/10 01:56:30;;;;;;;12.82;8.48;;;;;;;-145.61;100.00;68426.72;4981246;28;20125;-89
2021/01/10 01:59:04;;;;;;;11.45;8.07;;;;;;;-145.61;100.00;68426.72;4979188;28;20025;-90
2021/01/10 02:01:32;;;;;;;11.18;7.50;;;;;;;-145.61;100.00;68426.72;4987632;28;20134;-89
2021/01/10 02:04:26;;;;;;;12.55;9.00;;;;;;;-145.61;100.00;68426.72;4980319;28;20084;-89
2021/01/10 02:06:58;;;;;;;11.65;8.70;;;;;;;-145.61;100.00;68426.72;4978709;28;20070;-89
2021/01/10 02:09:26;;;;;;;11.60;8.48;;;;;;;-145.61;100.00;68426.72;4979639;28;20101;-90
2021/01/10 02:11:53;;;;;;;11.10;8.20;;;;;;;-145.61;100.00;68426.72;4992941;28;20453;-89
2021/01/10 02:14:22;;;;;;;10.98;7.65;;;;;;;-145.61;100.00;68426.72;4999257;28;20027;-89
2021/01/10 02:16:49;;;;;;;12.25;8.50;;;;;;;-145.61;100.00;68426.72;4997649;28;20026;-90
2021/01/10 02:19:22;;;;;;;10.80;8.10;;;;;;;-145.61;100.00;68426.72;4978976;28;20054;-89
2021/01/10 02:21:50;;;;;;;12.95;8.25;;;;;;;-145.61;100.00;68426.72;4995925;28;20033;-89
2021/01/10 02:24:15;;;;;;;11.20;8.07;;;;;;;-145.61;100.00;68426.72;4997711;28;20476;-90
2021/01/10 02:26:41;;;;;;;11.18;7.95;;;;;;;-145.61;100.00;68426.72;4997116;28;20026;-89
2021/01/10 02:29:07;;;;;;;13.20;8.10;;;;;;;-145.61;100.00;68426.72;4979525;28;20097;-89
2021/01/10 02:31:37;;;;;;;11.30;7.88;;;;;;;-145.61;100.00;68426.72;4979609;28;20038;-90
2021/01/10 02:34:03;;;;;;;12.23;7.88;;;;;;;-145.61;100.00;68426.72;4986012;28;20597;-90
2021/01/10 02:36:52;;;;;;;10.43;7.60;;;;;;;-145.61;100.00;68426.72;4979404;28;20035;-90
2021/01/10 02:39:32;;;;;;;11.18;7.38;;;;;;;-145.61;100.00;68426.72;4996261;28;20093;-89
2021/01/10 02:42:19;;;;;;;12.47;8.07;;;;;;;-145.61;100.00;68426.72;4997777;28;20053;-89
2021/01/10 02:45:03;;;;;;;11.93;7.95;;;;;;;-145.61;100.00;68426.72;4998667;28;20029;-89
2021/01/10 02:47:29;;;;;;;11.63;8.40;;;;;;;-145.61;100.00;68426.72;4997568;28;20234;-88
2021/01/10 02:49:54;;;;;;;12.68;8.45;;;;;;;-145.61;100.00;68426.72;4997510;28;20093;-89
2021/01/10 02:52:19;;;;;;;11.48;8.32;;;;;;;-145.61;100.00;68426.72;4997484;28;20022;-89
2021/01/10 02:54:45;;;;;;;11.43;7.68;;;;;;;-145.61;100.00;68426.72;4997560;28;20030;-89
2021/01/10 02:57:23;;;;;;;11.40;7.78;;;;;;;-145.61;100.00;68426.72;4997610;28;20030;-89
2021/01/10 02:59:51;;;;;;;17.80;10.50;;;;;;;-145.61;100.00;68426.72;4978214;28;20023;-89
2021/01/10 03:02:18;;;;;;;34.92;18.55;;;;;;;-145.61;100.00;68426.72;4980929;28;20358;-89
2021/01/10 03:04:44;;;;;;;16.00;10.57;;;;;;;-145.61;100.00;68426.72;4977969;28;20027;-89
2021/01/10 03:07:10;;;;;;;19.48;11.85;;;;;;;-145.61;100.00;68426.72;4978828;28;20081;-89
2021/01/10 03:09:37;;;;;;;12.18;7.95;;;;;;;-145.61;100.00;68426.72;4987449;28;20311;-89
2021/01/10 03:12:25;;;;;;;11.52;7.75;;;;;;;-145.61;100.00;68426.72;4998188;28;20029;-89
2021/01/10 03:14:59;;;;;;;14.18;8.38;;;;;;;-145.61;100.00;68426.72;4997043;28;20034;-89
2021/01/10 03:17:38;;;;;;;12.70;7.53;;;;;;;-145.61;100.00;68426.72;4981081;28;20034;-89
2021/01/10 03:20:22;;;;;;;10.75;7.43;;;;;;;-145.61;100.00;68426.72;4997107;28;20018;-90
2021/01/10 03:22:49;;;;;;;11.65;8.23;;;;;;;-145.61;100.00;68426.72;4986284;28;20085;-89
2021/01/10 03:25:18;;;;;;;11.93;7.82;;;;;;;-145.61;100.00;68426.72;4977481;28;20305;-89
2021/01/10 03:27:44;;;;;;;13.00;8.27;;;;;;;-145.61;100.00;68426.72;4977350;28;20055;-89
2021/01/10 03:30:15;;;;;;;11.55;8.10;;;;;;;-145.61;100.00;68426.72;4977439;28;20042;-90
2021/01/10 03:32:41;;;;;;;12.68;7.60;;;;;;;-145.61;100.00;68426.72;4978619;28;20352;-90
2021/01/10 03:35:08;;;;;;;11.27;7.72;;;;;;;-145.61;100.00;68426.72;4977503;28;20061;-90
2021/01/10 03:37:35;;;;;;;10.77;8.35;;;;;;;-145.61;100.00;68426.72;4992771;28;20038;-90
2021/01/10 03:40:00;;;;;;;13.45;8.80;;;;;;;-145.61;100.00;68426.72;4993202;28;20019;-90
2021/01/10 03:42:26;;;;;;;13.65;9.13;;;;;;;-145.61;100.00;68426.72;4980563;28;20308;-90
2021/01/10 03:44:51;;;;;;;14.73;9.30;;;;;;;-145.61;100.00;68426.72;4978352;28;20038;-89
2021/01/10 03:47:17;;;;;;;11.93;8.15;;;;;;;-145.61;100.00;68426.72;4978307;28;20026;-89
2021/01/10 03:49:42;;;;;;;13.35;8.90;;;;;;;-145.61;100.00;68426.72;4977191;28;20085;-89
2021/01/10 03:52:08;;;;;;;13.60;8.52;;;;;;;-145.61;100.00;68426.72;4989996;28;20033;-89
2021/01/10 03:54:33;;;;;;;11.52;8.57;;;;;;;-145.61;100.00;68426.72;4991861;28;20058;-89
2021/01/10 03:56:59;;;;;;;13.30;8.63;;;;;;;-145.61;100.00;68426.72;4979239;28;20035;-89
2021/01/10 03:59:26;;;;;;;13.60;8.20;;;;;;;-145.61;100.00;68426.72;4996564;28;20048;-89
2021/01/10 04:01:52;;;;;;;12.65;7.70;;;;;;;-145.61;100.00;68426.72;4995327;28;20026;-89
2021/01/10 04:04:17;;;;;;;11.32;8.13;;;;;;;-145.61;100.00;68426.72;4989491;28;20022;-89
2021/01/10 04:06:43;;;;;;;10.93;7.47;;;;;;;-145.61;100.00;68426.72;4996510;28;20117;-90
2021/01/10 04:09:08;;;;;;;12.57;7.47;;;;;;;-145.61;100.00;68426.72;4996612;28;20120;-89
2021/01/10 04:11:33;;;;;;;12.20;7.70;;;;;;;-145.61;100.00;68426.72;4997534;28;20031;-89
2021/01/10 04:13:59;;;;;;;11.13;8.10;;;;;;;-145.61;100.00;68426.72;4996642;28;20077;-89
2021/01/10 04:16:25;;;;;;;11.15;8.18;;;;;;;-145.61;100.00;68426.72;4996415;28;20053;-90
2021/01/10 04:18:50;;;;;;;11.25;8.27;;;;;;;-145.61;100.00;68426.72;4996444;28;20065;-89
2021/01/10 04:21:16;;;;;;;12.30;8.77;;;;;;;-145.61;100.00;68426.72;4984545;28;20108;-89
2021/01/10 04:23:41;;;;;;;12.20;8.20;;;;;;;-145.61;100.00;68426.72;4977879;28;20034;-89
2021/01/10 04:26:07;;;;;;;12.07;8.63;;;;;;;-145.61;100.00;68426.72;4995159;28;20033;-90
2021/01/10 04:28:32;;;;;;;13.10;8.90;;;;;;;-145.61;100.00;68426.72;4982808;28;20054;-89
2021/01/10 04:31:00;;;;;;;12.60;9.20;;;;;;;-145.61;100.00;68426.72;4976806;28;20031;-89
2021/01/10 04:33:25;;;;;;;14.98;9.65;;;;;;;-145.61;100.00;68426.72;4980793;28;20026;-90
2021/01/10 04:35:50;;;;;;;12.52;8.90;;;;;;;-145.61;100.00;68426.72;4988921;28;20034;-89
2021/01/10 04:38:16;;;;;;;11.88;8.25;;;;;;;-145.61;100.00;68426.72;4977459;28;20029;-89
2021/01/10 04:40:42;;;;;;;11.80;8.63;;;;;;;-145.61;100.00;68426.72;4990946;28;20123;-90
2021/01/10 04:43:07;;;;;;;11.55;8.48;;;;;;;-145.61;100.00;68426.72;4996299;28;20436;-90
2021/01/10 04:45:33;;;;;;;12.43;8.70;;;;;;;-0.10;71.87;96358.91;4996062;28;20081;-89
2021/01/10 04:47:59;;;;;;;11.88;8.75;;;;;;;-145.61;100.00;68426.72;4995964;28;20022;-89
2021/01/10 04:50:25;;;;;;;12.25;8.68;;;;;;;-145.61;100.00;68426.72;4987697;28;20026;-89
2021/01/10 04:52:53;;;;;;;17.90;10.98;;;;;;;-145.61;100.00;68426.72;4987074;28;20030;-89
2021/01/10 04:55:20;;;;;;;11.95;8.65;;;;;;;-145.61;100.00;68426.72;4996770;28;20042;-89
2021/01/10 04:57:48;;;;;;;15.95;9.65;;;;;;;-145.61;100.00;68426.72;4988382;28;20023;-90
2021/01/10 05:00:14;;;;;;;15.18;9.50;;;;;;;-145.61;100.00;68426.72;4995843;28;20030;-89
2021/01/10 05:03:01;;;;;;;14.68;9.48;;;;;;;-145.61;100.00;68426.72;4994014;28;20110;-89
2021/01/10 05:05:27;;;;;;;12.40;9.18;;;;;;;-2.96;70.44;96543.69;4988428;28;20050;-89
2021/01/10 05:07:53;;;;;;;13.25;8.98;;;;;;;-145.61;100.00;68426.72;4986065;28;20049;-90
2021/01/10 05:10:18;;;;;;;13.27;7.97;;;;;;;-2.96;70.44;96543.69;4999047;28;20113;-89
2021/01/10 05:12:43;;;;;;;11.55;8.10;;;;;;;-145.61;100.00;68426.72;4999742;28;20113;-90
2021/01/10 05:15:09;;;;;;;10.13;7.32;;;;;;;-3.21;70.88;96512.28;4999657;28;20441;-90
2021/01/10 05:17:35;;;;;;;10.57;7.53;;;;;;;-145.61;100.00;68426.72;4987711;28;20026;-89
2021/01/10 05:20:08;;;;;;;10.27;7.40;;;;;;;-3.21;70.88;96512.28;4979981;28;20023;-89
2021/01/10 05:22:33;;;;;;;10.80;7.55;;;;;;;-145.61;100.00;68426.72;4979985;28;20035;-89
2021/01/10 05:25:12;;;;;;;9.07;6.65;;;;;;;-145.61;100.00;68426.72;4979761;28;20038;-90
2021/01/10 05:27:39;;;;;;;10.57;7.18;;;;;;;-145.61;100.00;68426.72;4979673;28;20339;-90
2021/01/10 05:30:05;;;;;;;13.57;7.70;;;;;;;-145.61;100.00;68426.72;4979865;28;20300;-90
2021/01/10 05:32:31;;;;;;;10.13;7.22;;;;;;;-145.61;100.00;68426.72;4979595;28;20027;-91
2021/01/10 05:35:00;;;;;;;9.90;6.75;;;;;;;-145.61;100.00;68426.72;4985844;28;20045;-90
2021/01/10 05:37:25;;;;;;;9.27;6.82;;;;;;;-145.61;100.00;68426.72;4989629;28;20041;-89
2021/01/10 05:39:51;;;;;;;9.50;6.85;;;;;;;-145.61;100.00;68426.72;4979547;28;20015;-90
2021/01/10 05:42:18;;;;;;;11.63;7.40;;;;;;;-3.40;70.17;96532.97;4980568;28;20102;-90
2021/01/10 05:44:43;;;;;;;11.38;7.75;;;;;;;-145.61;100.00;68426.72;4979709;28;20031;-90
2021/01/10 05:47:13;;;;;;;13.00;7.45;;;;;;;-145.61;100.00;68426.72;4980475;28;20037;-89
2021/01/10 05:49:52;;;;;;;11.30;7.50;;;;;;;-145.61;100.00;68426.72;4980450;28;20411;-89
2021/01/10 05:52:19;;;;;;;12.57;7.90;;;;;;;-145.61;100.00;68426.72;4985884;28;20045;-89
2021/01/10 05:54:44;;;;;;;12.52;7.95;;;;;;;-145.61;100.00;68426.72;4999609;28;20034;-90
2021/01/10 05:57:10;;;;;;;14.48;8.50;;;;;;;-145.61;100.00;68426.72;4991700;28;20080;-89
2021/01/10 05:59:38;;;;;;;12.38;8.07;;;;;;;-145.61;100.00;68426.72;5009763;28;20057;-90
2021/01/10 06:02:05;;;;;;;13.23;9.20;;;;;;;-3.11;70.71;96621.75;4984745;28;20022;-89
2021/01/10 06:04:32;;;;;;;13.93;8.32;;;;;;;-3.14;72.42;96623.25;4998683;28;20029;-90
2021/01/10 06:06:58;;;;;;;13.30;8.27;;;;;;;-3.14;72.42;96623.25;4997980;28;20037;-89
2021/01/10 06:09:24;;;;;;;12.45;8.48;;;;;;;-3.14;72.42;96623.25;4998209;28;20030;-89
2021/01/10 06:11:50;;;;;;;13.30;9.23;;;;;;;-3.81;72.97;96554.81;4998499;28;20030;-90
2021/01/10 06:14:24;;;;;;;12.35;9.57;;;;;;;-3.71;73.14;96570.13;4999525;28;20026;-91
2021/01/10 06:16:55;;;;;;;11.65;8.15;;;;;;;-3.71;73.14;96570.13;4998174;28;20037;-90
2021/01/10 06:19:25;;;;;;;11.82;8.60;;;;;;;-3.71;73.14;96570.13;4990203;28;20022;-90
2021/01/10 06:21:53;;;;;;;12.25;7.85;;;;;;;-3.71;73.14;96570.13;4982419;28;20074;-90
2021/01/10 06:24:21;;;;;;;10.68;7.38;;;;;;;-3.71;73.14;96570.13;4999219;28;20314;-89
2021/01/10 06:26:53;;;;;;;11.18;7.65;;;;;;;-3.98;74.37;96556.13;4978896;28;20023;-90
2021/01/10 06:29:20;;;;;;;19.67;11.50;;;;;;;-3.67;71.76;96588.78;4978386;28;20042;-89
2021/01/10 06:31:49;;;;;;;16.17;9.48;;;;;;;-3.37;100.00;85948.16;4983300;28;20311;-89
2021/01/10 06:34:19;;;;;;;17.48;10.20;;;;;;;-3.37;73.82;96641.91;4998028;28;20084;-90
2021/01/10 06:36:46;;;;;;;16.55;9.63;;;;;;;-3.83;72.93;96565.06;4980918;28;20040;-88
2021/01/10 06:39:28;;;;;;;13.27;8.23;;;;;;;-3.83;72.93;96565.06;4978318;28;20029;-88
2021/01/10 06:41:56;;;;;;;12.00;8.25;;;;;;;-3.43;72.68;96656.63;4988566;28;20041;-89
2021/01/10 06:44:23;;;;;;;17.08;8.95;;;;;;;-3.86;72.64;96573.72;4997658;28;20030;-89
2021/01/10 06:46:54;;;;;;;13.80;9.35;;;;;;;-3.86;72.64;96573.72;4997717;28;20034;-89
2021/01/10 06:49:20;;;;;;;;;;;;;;;-3.86;72.64;96573.72;4999224;28;20037;-90
2021/01/10 06:51:47;;;;;;;15.30;9.10;;;;;;;-3.86;72.64;96573.72;4997569;28;19951;-89
2021/01/10 06:54:12;;;;;;;19.42;10.88;;;;;;;-3.86;72.64;96573.72;4997694;28;20029;-89
2021/01/10 06:56:41;;;;;;;17.48;10.05;;;;;;;-4.05;73.32;96595.84;4997402;28;20026;-89
2021/01/10 06:59:26;;;;;;;13.68;9.15;;;;;;;-145.61;100.00;68426.72;4997425;28;20022;-88
2021/01/10 07:01:51;;;;;;;11.25;8.57;;;;;;;-3.53;100.00;96673.94;4997567;28;20124;-89
2021/01/10 07:04:44;;;;;;;12.10;7.65;;;;;;;-4.03;72.64;96609.50;4997437;28;20058;-89
2021/01/10 07:07:09;;;;;;;14.45;8.13;;;;;;;-4.03;72.64;96609.50;4982588;28;20529;-90
2021/01/10 07:09:54;;;;;;;12.57;8.15;;;;;;;-4.03;72.64;96609.50;4997331;28;20031;-90
2021/01/10 07:12:21;;;;;;;17.35;8.82;;;;;;;-4.03;72.64;96609.50;4996503;28;20311;-89
2021/01/10 07:14:47;;;;;;;13.13;8.95;;;;;;;-3.50;74.34;96678.56;4991659;28;20035;-89
2021/01/10 07:17:13;;;;;;;12.20;8.95;;;;;;;-3.39;73.41;96669.97;4978676;28;20101;-89
2021/01/10 07:19:40;;;;;;;12.82;8.43;;;;;;;-145.61;100.00;68426.72;4978707;28;20026;-89
2021/01/10 07:22:25;;;;;;;11.60;8.00;;;;;;;-3.62;72.63;96654.06;4990074;28;20028;-89
2021/01/10 07:24:51;;;;;;;11.02;8.00;;;;;;;-3.45;71.59;96672.94;4997461;28;20034;-89
2021/01/10 07:27:34;;;;;;;11.55;8.35;;;;;;;-3.52;71.86;96683.44;4992670;28;20069;-88
2021/01/10 07:30:23;;;;;;;16.65;9.65;;;;;;;-3.52;71.84;96677.38;4979899;28;20118;-88
2021/01/10 07:32:49;;;;;;;13.15;9.07;;;;;;;-3.82;71.79;96645.47;4977383;28;20026;-89
2021/01/10 07:35:14;;;;;;;14.80;10.40;;;;;;;-3.82;71.79;96645.47;4984877;28;20037;-89
2021/01/10 07:37:40;;;;;;;23.73;14.60;;;;;;;-3.82;71.79;96645.47;4996543;28;20022;-90
2021/01/10 07:40:08;;;;;;;26.52;15.20;;;;;;;-3.82;71.79;96645.47;4996891;28;20030;-89
2021/01/10 07:42:39;;;;;;;29.33;17.17;;;;;;;-3.82;71.79;96645.47;4987617;28;20064;-90
2021/01/10 07:45:20;;;;;;;30.27;18.85;;;;;;;-3.82;71.79;96645.47;4986584;28;20044;-88
2021/01/10 07:47:54;;;;;;;28.83;17.52;;;;;;;-3.82;71.79;96645.47;4995137;28;20109;-89
2021/01/10 07:50:20;;;;;;;27.58;16.30;;;;;;;-3.93;73.03;96632.03;4973746;28;20125;-91
2021/01/10 07:52:55;;;;;;;25.10;15.25;;;;;;;-3.58;71.65;96682.22;4979461;28;20396;-90
2021/01/10 07:55:23;;;;;;;23.42;14.80;;;;;;;-4.02;72.29;96619.00;4976925;28;20035;-89
2021/01/10 07:58:00;;;;;;;24.25;14.52;;;;;;;-4.02;72.29;96619.00;4977332;28;20030;-90
2021/01/10 08:00:53;;;;;;;20.63;13.65;;;;;;;-3.96;73.17;96632.72;4977239;28;20090;-90
2021/01/10 08:03:27;;;;;;;17.30;11.90;;;;;;;-3.88;72.57;96650.31;4984426;28;20070;-90
2021/01/10 08:06:06;;;;;;;18.70;12.23;;;;;;;-3.66;72.32;96683.25;4978261;28;20033;-92
2021/01/10 08:08:39;;;;;;;17.67;11.45;;;;;;;-3.50;72.28;96702.47;4991592;28;20137;-89
2021/01/10 08:11:04;;;;;;;16.95;10.82;;;;;;;-3.50;72.28;96702.47;4994811;28;20037;-92
2021/01/10 08:13:34;;;;;;;13.73;9.60;;;;;;;-3.50;72.28;96702.47;4995553;28;20030;-90
2021/01/10 08:16:02;;;;;;;17.38;9.63;;;;;;;-145.61;100.00;68426.72;4997276;28;20042;-88
2021/01/10 08:18:46;;;;;;;15.52;10.23;;;;;;;-3.50;72.28;96702.47;4997293;28;20098;-90
2021/01/10 08:21:16;;;;;;;16.25;11.23;;;;;;;-3.50;72.28;96702.47;4997469;28;20030;-91
2021/01/10 08:23:43;;;;;;;17.48;11.43;;;;;;;-3.93;71.94;96602.06;4998093;28;20081;-90
2021/01/10 08:26:11;;;;;;;18.33;11.75;;;;;;;-3.93;71.94;96602.06;4982975;28;20062;-90
2021/01/10 08:28:45;;;;;;;16.90;11.55;;;;;;;-3.93;71.94;96602.06;4995015;28;20050;-92
2021/01/10 08:31:13;;;;;;;11.43;8.30;;;;;;;-3.93;71.94;96602.06;4994410;28;20418;-92
2021/01/10 08:33:39;;;;;;;12.05;8.15;;;;;;;-3.93;71.94;96602.06;4996185;28;20034;-91
2021/01/10 08:36:12;;;;;;;11.10;7.60;;;;;;;-145.61;100.00;68426.72;4996637;28;20110;-91
2021/01/10 08:38:56;;;;;;;11.02;7.35;;;;;;;-145.61;100.00;68426.72;4995771;28;20034;-90
2021/01/10 08:41:32;;;;;;;11.07;7.65;;;;;;;-145.61;100.00;68426.72;4986794;28;20311;-89
2021/01/10 08:44:06;;;;;;;9.35;6.80;;;;;;;-145.61;100.00;68426.72;5002799;28;20038;-90
2021/01/10 08:46:34;;;;;;;11.52;7.10;;;;;;;-145.61;100.00;68426.72;4992285;28;20134;-90
2021/01/10 08:49:00;;;;;;;11.20;7.63;;;;;;;-145.61;100.00;68426.72;4994929;28;20201;-90
2021/01/10 08:51:41;;;;;;;11.55;7.63;;;;;;;-145.61;100.00;68426.72;4994170;28;20092;-90
2021/01/10 08:54:16;;;;;;;;;;;;;;;-145.61;100.00;68426.72;4992409;28;20131;-89
2021/01/10 08:56:43;;;;;;;16.60;10.82;;;;;;;-145.61;100.00;68426.72;4999626;28;19910;-89
2021/01/10 08:59:10;;;;;;;19.13;11.85;;;;;;;-145.61;100.00;68426.72;4999128;28;20437;-90
2021/01/10 09:01:36;;;;;;;23.13;12.98;;;;;;;-145.61;100.00;68426.72;4999395;28;20023;-90
2021/01/10 09:04:06;;;;;;;18.27;11.45;;;;;;;-145.61;100.00;68426.72;4989888;28;20038;-90
2021/01/10 09:06:52;;;;;;;18.17;11.93;;;;;;;-145.61;100.00;68426.72;4996437;28;20026;-89
2021/01/10 09:09:28;;;;;;;17.08;11.30;;;;;;;-145.61;100.00;68426.72;4998899;28;20022;-90
2021/01/10 09:12:04;;;;;;;20.40;13.68;;;;;;;-145.61;100.00;68426.72;4992660;28;20030;-90
2021/01/10 09:14:35;;;;;;;18.30;11.70;;;;;;;-145.61;100.00;68426.72;4992030;28;20030;-90
2021/01/10 09:17:02;;;;;;;17.52;11.07;;;;;;;-145.61;100.00;68426.72;4999088;28;20029;-89
2021/01/10 09:19:41;;;;;;;17.02;11.30;;;;;;;-145.61;100.00;68426.72;4999399;28;20806;-90
2021/01/10 09:22:07;;;;;;;18.70;11.30;;;;;;;-145.61;100.00;68426.72;4996539;28;20026;-89
2021/01/10 09:24:33;;;;;;;20.08;11.70;;;;;;;-145.61;100.00;68426.72;4999337;28;20025;-89
2021/01/10 09:27:13;;;;;;;19.58;11.25;;;;;;;-145.61;100.00;68426.72;4996825;28;20038;-90
2021/01/10 09:29:39;;;;;;;17.77;11.82;;;;;;;-145.61;100.00;68426.72;4992816;28;20026;-91
2021/01/10 09:32:05;;;;;;;18.35;12.48;;;;;;;-145.61;100.00;68426.72;4999766;28;20100;-90
2021/01/10 09:34:31;;;;;;;18.02;12.30;;;;;;;-145.61;100.00;68426.72;4998143;28;20034;-93
2021/01/10 09:37:07;;;;;;;20.45;14.13;;;;;;;-145.61;100.00;68426.72;4984290;28;20025;-90
2021/01/10 09:39:44;;;;;;;18.35;11.68;;;;;;;-145.61;100.00;68426.72;4992304;28;20109;-90
2021/01/10 09:42:11;;;;;;;16.77;10.90;;;;;;;-145.61;100.00;68426.72;4992302;28;20057;-91
2021/01/10 09:44:37;;;;;;;12.30;9.50;;;;;;;-145.61;100.00;68426.72;4983395;28;20389;-89
2021/01/10 09:47:03;;;;;;;13.18;9.02;;;;;;;-145.61;100.00;68426.72;4997681;28;20117;-91
2021/01/10 09:49:34;;;;;;;13.05;8.38;;;;;;;-145.61;100.00;68426.72;4998208;28;20049;-89
2021/01/10 09:52:04;;;;;;;11.35;8.07;;;;;;;-145.61;100.00;68426.72;4988588;28;20042;-89
2021/01/10 09:54:35;;;;;;;12.83;9.07;;;;;;;-145.61;100.00;68426.72;4989088;28;20390;-90
2021/01/10 09:57:14;;;;;;;12.40;8.05;;;;;;;-145.61;100.00;68426.72;4998155;28;20039;-90
2021/01/10 09:59:46;;;;;;;11.82;8.65;;;;;;;-145.61;100.00;68426.72;4992561;28;20033;-90
2021/01/10 10:02:19;;;;;;;40.33;11.30;;;;;;;-145.61;100.00;68426.72;4995060;28;20038;-90
2021/01/10 10:04:47;;;;;;;12.38;9.35;;;;;;;-145.61;100.00;68426.72;4996219;28;20026;-90
2021/01/10 10:07:14;;;;;;;13.60;8.80;;;;;;;-145.61;100.00;68426.72;4989968;28;20030;-91
2021/01/10 10:10:27;;;;;;;14.23;8.65;;;;;;;-145.61;100.00;68426.72;4999004;28;20030;-93
2021/01/10 10:13:02;;;;;;;13.68;9.05;;;;;;;-145.61;100.00;68426.72;4979269;28;20053;-92
2021/01/10 10:15:42;;;;;;;12.88;8.75;;;;;;;-145.61;100.00;68426.72;4989335;28;20486;-93
2021/01/10 10:18:08;;;;;;;12.00;9.02;;;;;;;-145.61;100.00;68426.72;4995939;28;20023;-89
2021/01/10 10:20:34;;;;;;;13.27;9.43;;;;;;;-145.61;100.00;68426.72;4993868;28;20318;-93
2021/01/10 10:23:11;;;;;;;14.48;11.05;;;;;;;-145.61;100.00;68426.72;4996924;28;20117;-91
2021/01/10 10:25:37;;;;;;;13.48;9.90;;;;;;;-145.61;100.00;68426.72;4995403;28;20374;-92
2021/01/10 10:28:04;;;;;;;15.40;10.63;;;;;;;-145.61;100.00;68426.72;4994462;28;20085;-93
2021/01/10 10:30:30;;;;;;;13.75;10.32;;;;;;;-145.61;100.00;68426.72;4991783;28;20077;-92
2021/01/10 10:32:56;;;;;;;14.10;9.85;;;;;;;-145.61;100.00;68426.72;4997611;28;20050;-90
2021/01/10 10:35:23;;;;;;;14.20;10.30;;;;;;;-145.61;100.00;68426.72;4992651;28;20425;-89
2021/01/10 10:37:48;;;;;;;13.10;9.95;;;;;;;-145.61;100.00;68426.72;4996872;28;20063;-90
2021/01/10 10:40:14;;;;;;;15.10;10.65;;;;;;;-145.61;100.00;68426.72;4995299;28;20058;-89
2021/01/10 10:42:40;;;;;;;13.70;10.05;;;;;;;-145.61;100.00;68426.72;4995027;28;20031;-90
2021/01/10 10:45:06;;;;;;;17.15;11.23;;;;;;;-145.61;100.00;68426.72;4994971;28;20108;-91
2021/01/10 10:47:32;;;;;;;14.80;10.57;;;;;;;-145.61;100.00;68426.72;4978539;28;20042;-92
2021/01/10 10:49:58;;;;;;;15.43;11.07;;;;;;;-145.61;100.00;68426.72;4990622;28;20023;-89
2021/01/10 10:52:23;;;;;;;16.52;12.02;;;;;;;-145.61;100.00;68426.72;4982206;28;20030;-92
2021/01/10 10:54:48;;;;;;;17.08;12.57;;;;;;;-145.61;100.00;68426.72;4984275;28;20027;-94
2021/01/10 10:57:14;;;;;;;19.63;11.75;;;;;;;-145.61;100.00;68426.72;4991642;28;20445;-89
2021/01/10 10:59:40;;;;;;;16.38;11.57;;;;;;;-145.61;100.00;68426.72;4977129;28;20030;-88
2021/01/10 11:02:09;;;;;;;17.77;12.63;;;;;;;-145.61;100.00;68426.72;4997014;28;20045;-89
2021/01/10 11:04:42;;;;;;;17.52;12.38;;;;;;;-145.61;100.00;68426.72;4993670;28;20114;-89
2021/01/10 11:07:09;;;;;;;17.10;11.48;;;;;;;-145.61;100.00;68426.72;4979155;28;20029;-89
2021/01/10 11:09:34;;;;;;;17.25;11.95;;;;;;;-145.61;100.00;68426.72;4979793;28;20066;-90
2021/01/10 11:12:00;;;;;;;16.10;11.50;;;;;;;-145.61;100.00;68426.72;4978426;28;20046;-90
2021/01/10 11:14:26;;;;;;;15.68;11.15;;;;;;;-145.61;100.00;68426.72;4978878;28;20058;-91